This is the latest recevied weather packets stored in our database for station/object WP4NYS-13. If no packets are shown the sender has not sent any weather packets the latest 10 day(s).
| Time | Temp. | Humidity | Pressure | Rain* | Wind** | Luminosity | Snow |
|---|---|---|---|---|---|---|---|
| 1777404091 | 32.78° C | 41% | 1019.5 hPa | 0 mm | - | - | - |
| 1777403787 | 32.78° C | 41% | 1020 hPa | 0 mm | - | - | - |
| 1777403485 | 31.67° C | 43% | 1020 hPa | 0 mm | - | - | - |
| 1777403180 | 31.67° C | 43% | 1020 hPa | 0 mm | - | - | - |
| 1777402875 | 31.67° C | 44% | 1020 hPa | 0 mm | - | - | - |
| 1777402572 | 30.56° C | 48% | 1020.5 hPa | 0 mm | - | - | - |
| 1777402270 | 31.11° C | 46% | 1020.5 hPa | 0 mm | - | - | - |
| 1777401964 | 31.67° C | 45% | 1020.4 hPa | 0 mm | - | - | - |
| 1777401663 | 32.22° C | 44% | 1020.7 hPa | 0 mm | - | - | - |
| 1777401361 | 32.22° C | 44% | 1020.8 hPa | 0 mm | - | - | - |
| 1777401056 | 32.78° C | 45% | 1020.7 hPa | 0 mm | - | - | - |
| 1777400751 | 31.67° C | 46% | 1020.9 hPa | 0 mm | - | - | - |
| 1777400449 | 32.22° C | 46% | 1021.1 hPa | 0 mm | - | - | - |
| 1777400144 | 32.22° C | 45% | 1021.3 hPa | 0 mm | - | - | - |
| 1777399841 | 31.11° C | 47% | 1021.4 hPa | 0 mm | - | - | - |
| 1777399538 | 30.56° C | 47% | 1021.3 hPa | 0 mm | - | - | - |
| 1777399235 | 30.56° C | 46% | 1021.5 hPa | 0 mm | - | - | - |
| 1777398933 | 31.11° C | 47% | 1021.4 hPa | 0 mm | - | - | - |
| 1777398630 | 31.11° C | 47% | 1021.3 hPa | 0 mm | - | - | - |
| 1777398326 | 30.56° C | 47% | 1021.6 hPa | 0 mm | - | - | - |
| 1777398023 | 31.11° C | 46% | 1021.5 hPa | 0 mm | - | - | - |
| 1777397720 | 30.56° C | 48% | 1021.4 hPa | 0 mm | - | - | - |
| 1777397416 | 30.56° C | 48% | 1021.7 hPa | 0 mm | - | - | - |
| 1777397112 | 30° C | 50% | 1021.6 hPa | 0 mm | - | - | - |
| 1777396809 | 29.44° C | 53% | 1021.4 hPa | 0 mm | - | - | - |
* Rain latest hour (hover to see other rain measurements)
** Current wind speed in m/s (hover to see current wind gust speed)